Terminal Aerodrome Forecast
Issued by NWS Greer, SC

Home | Current Version | Previous Version | Text Only | Print | Product List | Glossary On
Versions: 1 2 3 4 5 6 7 8 9 10 11 12 13 14 15 16 17 18 19 20 21 22 23 24 25 26 27 28 29 30 31 32 33 34 35 36 37 38 39 40 41 42
000
FTUS42 KGSP 201122
TAFCLT
TAF
KCLT 201122Z 2012/2112 02005KT P6SM -RA OVC045
     FM201500 06004KT P6SM -RA OVC020
     FM201900 06004KT P6SM OVC035
     FM210200 10004KT P6SM BKN021
     FM210300 10003KT 4SM BR BKN014
     FM210900 00000KT 1SM BR BKN010=

USA.gov is the U.S. government's official web portal to all federal, state and local government web resources and services.